^^

..:: Storico WU ::..




Lo storico viene creato da WUnderground con i dati che la stazione Meteomincio invia al loro server. L' aggiornamento viene fatto ogni 5 minuti circa, tuttavia possono esserci intervalli pił ampi a causa di errori, interruzioni di servizio o problemi nell' invio tramite FTP.


Storico stazione MeteoMincio
Giorno Sommario per Aprile 07, 2022 Unità:  Inglese    Metrico   Entrambi
Giorno Settimana Mese Anno
  Max: Min: Media:
Temperatura: 69.8 °F 46.4 °F 57.9 °F
Dew Point: 51.8 °F 44.6 °F 47.5 °F
Umidità: 92% 48% 70%
Velocità vento: 11.8mph 0mph 6mph
Raffica: 16.2mph - -
Direzione- - WSW
Pressione: 29.7 in 29.5 in -
Precipitazioni: 0 in    
 
 
Tabulato Dati per Aprile 07, 2022
Ora Temperatura Dew Point Pressione Direzione Velocità vento Raffica Umidità Intensità pioggia (oraria) Info solare Situazione
00:04 51.8 °F 46.4 °F 29.7 in ESE 2.5 mph 5 mph 79% 0 in 0.00 W/m2 unknown
00:09 51.8 °F 46.4 °F 29.7 in ESE 1.9 mph 5 mph 79% 0 in 0.00 W/m2 unknown
00:14 51.8 °F 46.4 °F 29.7 in SE 0.6 mph 2.5 mph 80% 0 in 0.00 W/m2 unknown
00:19 51.8 °F 46.4 °F 29.7 in Calm   1.2 mph 80% 0 in 0.00 W/m2 unknown
00:24 51.8 °F 46.4 °F 29.7 in SSE 1.2 mph 2.5 mph 80% 0 in 0.00 W/m2 unknown
00:29 51.8 °F 46.4 °F 29.7 in SSE 1.2 mph 2.5 mph 80% 0 in 0.00 W/m2 unknown
00:34 51.8 °F 46.4 °F 29.7 in South 2.5 mph 3.7 mph 80% 0 in 0.00 W/m2 unknown
00:39 51.8 °F 46.4 °F 29.7 in SSW 3.1 mph 3.7 mph 81% 0 in 0.00 W/m2 unknown
00:44 51.8 °F 46.4 °F 29.7 in SW 3.1 mph 3.7 mph 82% 0 in 0.00 W/m2 unknown
00:49 51.8 °F 46.4 °F 29.7 in SW 3.1 mph 3.7 mph 82% 0 in 0.00 W/m2 unknown
00:54 51.8 °F 46.4 °F 29.7 in SW 3.1 mph 3.7 mph 82% 0 in 0.00 W/m2 unknown
00:59 51.8 °F 46.4 °F 29.7 in SSW 3.1 mph 3.7 mph 82% 0 in 0.00 W/m2 unknown
01:04 51.8 °F 46.4 °F 29.7 in SSW 3.1 mph 3.7 mph 82% 0 in 0.00 W/m2 unknown
01:09 51.8 °F 46.4 °F 29.7 in SSW 2.5 mph 3.7 mph 82% 0 in 0.00 W/m2 unknown
01:14 51.8 °F 46.4 °F 29.7 in SSW 3.1 mph 3.7 mph 83% 0 in 0.00 W/m2 unknown
01:19 51.8 °F 46.4 °F 29.7 in South 3.7 mph 6.2 mph 83% 0 in 0.00 W/m2 unknown
01:24 51.8 °F 46.4 °F 29.7 in South 4.3 mph 6.2 mph 83% 0 in 0.00 W/m2 unknown
01:29 51.8 °F 46.4 °F 29.7 in South 2.5 mph 6.2 mph 83% 0 in 0.00 W/m2 unknown
01:34 51.8 °F 46.4 °F 29.7 in SSW 1.9 mph 3.7 mph 83% 0 in 0.00 W/m2 unknown
01:39 51.8 °F 46.4 °F 29.7 in South 1.9 mph 3.7 mph 84% 0 in 0.00 W/m2 unknown
01:44 51.8 °F 46.4 °F 29.7 in SSE 1.9 mph 3.7 mph 84% 0 in 0.00 W/m2 unknown
01:49 51.8 °F 46.4 °F 29.7 in South 1.2 mph 3.1 mph 84% 0 in 0.00 W/m2 unknown
01:54 51.8 °F 46.4 °F 29.7 in SSW 1.2 mph 2.5 mph 85% 0 in 0.00 W/m2 unknown
01:59 51.8 °F 46.4 °F 29.7 in SSW 1.2 mph 2.5 mph 85% 0 in 0.00 W/m2 unknown
02:04 51.8 °F 46.4 °F 29.7 in SSW 1.9 mph 3.1 mph 85% 0 in 0.00 W/m2 unknown
02:09 51.8 °F 46.4 °F 29.7 in SW 2.5 mph 3.7 mph 86% 0 in 0.00 W/m2 unknown
02:14 51.8 °F 46.4 °F 29.7 in SSW 1.9 mph 3.1 mph 86% 0 in 0.00 W/m2 unknown
02:19 51.8 °F 46.4 °F 29.7 in SSE 1.2 mph 2.5 mph 86% 0 in 0.00 W/m2 unknown
02:24 51.8 °F 46.4 °F 29.7 in South 1.2 mph 2.5 mph 86% 0 in 0.00 W/m2 unknown
02:29 51.8 °F 48.2 °F 29.7 in South 1.2 mph 2.5 mph 86% 0 in 0.00 W/m2 unknown
02:34 51.8 °F 48.2 °F 29.7 in South 1.2 mph 2.5 mph 86% 0 in 0.00 W/m2 unknown
02:39 51.8 °F 48.2 °F 29.7 in South 1.2 mph 2.5 mph 86% 0 in 0.00 W/m2 unknown
02:44 51.8 °F 46.4 °F 29.7 in South 1.2 mph 2.5 mph 86% 0 in 0.00 W/m2 unknown
02:49 51.8 °F 48.2 °F 29.7 in South 0.6 mph 1.9 mph 86% 0 in 0.00 W/m2 unknown
02:54 51.8 °F 48.2 °F 29.7 in Calm   1.2 mph 86% 0 in 0.00 W/m2 unknown
02:59 51.8 °F 46.4 °F 29.7 in Calm   1.2 mph 85% 0 in 0.00 W/m2 unknown
03:04 51.8 °F 46.4 °F 29.7 in Calm   1.2 mph 85% 0 in 0.00 W/m2 unknown
03:09 51.8 °F 48.2 °F 29.7 in South 0.6 mph 1.2 mph 86% 0 in 0.00 W/m2 unknown
03:14 51.8 °F 48.2 °F 29.7 in South 1.2 mph 1.2 mph 86% 0 in 0.00 W/m2 unknown
03:19 51.8 °F 46.4 °F 29.7 in Calm   1.2 mph 86% 0 in 0.00 W/m2 unknown
03:24 51.8 °F 46.4 °F 29.7 in Calm   1.2 mph 86% 0 in 0.00 W/m2 unknown
03:29 51.8 °F 48.2 °F 29.7 in South 1.2 mph 2.5 mph 86% 0 in 0.00 W/m2 unknown
03:34 51.8 °F 46.4 °F 29.7 in WSW 1.9 mph 3.7 mph 86% 0 in 0.00 W/m2 unknown
03:39 51.8 °F 46.4 °F 29.7 in West 1.9 mph 3.1 mph 87% 0 in 0.00 W/m2 unknown
03:44 50 °F 46.4 °F 29.7 in West 1.9 mph 3.7 mph 87% 0 in 0.00 W/m2 unknown
03:49 50 °F 46.4 °F 29.7 in West 1.2 mph 3.1 mph 88% 0 in 0.00 W/m2 unknown
03:54 50 °F 46.4 °F 29.7 in West 0.6 mph 1.9 mph 88% 0 in 0.00 W/m2 unknown
03:59 51.8 °F 46.4 °F 29.7 in West 1.2 mph 2.5 mph 87% 0 in 0.00 W/m2 unknown
04:04 51.8 °F 46.4 °F 29.7 in West 1.2 mph 2.5 mph 87% 0 in 0.00 W/m2 unknown
04:09 50 °F 46.4 °F 29.7 in Calm   1.9 mph 87% 0 in 0.00 W/m2 unknown
04:14 51.8 °F 46.4 °F 29.7 in WNW 0.6 mph 1.9 mph 87% 0 in 0.00 W/m2 unknown
04:19 51.8 °F 46.4 °F 29.7 in WNW 1.2 mph 2.5 mph 87% 0 in 0.00 W/m2 unknown
04:24 51.8 °F 46.4 °F 29.7 in WNW 1.2 mph 2.5 mph 87% 0 in 0.00 W/m2 unknown
04:29 50 °F 46.4 °F 29.7 in WNW 2.5 mph 3.7 mph 87% 0 in 0.00 W/m2 unknown
04:34 50 °F 46.4 °F 29.7 in WNW 1.9 mph 3.7 mph 87% 0 in 0.00 W/m2 unknown
04:39 50 °F 46.4 °F 29.7 in WNW 1.2 mph 3.1 mph 87% 0 in 0.00 W/m2 unknown
04:44 50 °F 46.4 °F 29.7 in WNW 1.2 mph 1.9 mph 87% 0 in 0.00 W/m2 unknown
04:49 50 °F 46.4 °F 29.7 in WNW 0.6 mph 1.2 mph 87% 0 in 0.00 W/m2 unknown
04:54 50 °F 46.4 °F 29.7 in NW 1.2 mph 2.5 mph 87% 0 in 0.00 W/m2 unknown
04:59 50 °F 46.4 °F 29.7 in NW 1.2 mph 2.5 mph 88% 0 in 0.00 W/m2 unknown
05:04 50 °F 46.4 °F 29.7 in NW 0.6 mph 1.9 mph 88% 0 in 0.00 W/m2 unknown
05:09 50 °F 46.4 °F 29.7 in Calm   1.2 mph 88% 0 in 0.00 W/m2 unknown
05:14 50 °F 46.4 °F 29.7 in WNW 1.9 mph 2.5 mph 89% 0 in 0.00 W/m2 unknown
05:19 48.2 °F 46.4 °F 29.7 in WNW 1.9 mph 2.5 mph 89% 0 in 0.00 W/m2 unknown
05:24 48.2 °F 46.4 °F 29.7 in West 1.9 mph 2.5 mph 90% 0 in 0.00 W/m2 unknown
05:29 48.2 °F 46.4 °F 29.7 in West 1.2 mph 1.9 mph 90% 0 in 0.00 W/m2 unknown
05:34 48.2 °F 46.4 °F 29.7 in West 1.2 mph 2.5 mph 90% 0 in 0.00 W/m2 unknown
05:39 48.2 °F 44.6 °F 29.7 in West 1.2 mph 1.9 mph 90% 0 in 0.00 W/m2 unknown
05:44 48.2 °F 44.6 °F 29.7 in West 2.5 mph 3.1 mph 91% 0 in 0.00 W/m2 unknown
05:49 48.2 °F 44.6 °F 29.7 in West 2.5 mph 3.7 mph 91% 0 in 0.00 W/m2 unknown
05:54 48.2 °F 44.6 °F 29.7 in West 1.9 mph 3.7 mph 91% 0 in 0.00 W/m2 unknown
05:59 48.2 °F 46.4 °F 29.7 in West 1.9 mph 3.7 mph 92% 0 in 0.00 W/m2 unknown
06:04 48.2 °F 46.4 °F 29.7 in West 1.2 mph 3.1 mph 92% 0 in 0.00 W/m2 unknown
06:09 48.2 °F 46.4 °F 29.7 in West 1.2 mph 2.5 mph 92% 0 in 0.00 W/m2 unknown
06:14 48.2 °F 46.4 °F 29.7 in West 1.2 mph 2.5 mph 92% 0 in 0.00 W/m2 unknown
06:19 48.2 °F 44.6 °F 29.7 in WSW 1.2 mph 2.5 mph 91% 0 in 0.00 W/m2 unknown
06:24 48.2 °F 46.4 °F 29.7 in WSW 1.9 mph 3.7 mph 91% 0 in 0.00 W/m2 unknown
06:29 48.2 °F 46.4 °F 29.7 in SW 2.5 mph 3.7 mph 91% 0 in 0.00 W/m2 unknown
06:34 48.2 °F 46.4 °F 29.7 in SW 3.1 mph 3.7 mph 91% 0 in 0.00 W/m2 unknown
06:39 48.2 °F 46.4 °F 29.7 in SW 3.7 mph 5 mph 91% 0 in 0.00 W/m2 unknown
06:44 48.2 °F 46.4 °F 29.7 in WSW 4.3 mph 6.2 mph 91% 0 in 0.00 W/m2 unknown
06:49 48.2 °F 46.4 °F 29.7 in WSW 5 mph 6.2 mph 91% 0 in 0.00 W/m2 unknown
06:54 48.2 °F 46.4 °F 29.7 in WSW 5 mph 5 mph 91% 0 in 5.00 W/m2 unknown
06:59 48.2 °F 46.4 °F 29.7 in WSW 4.3 mph 6.2 mph 91% 0 in 9.00 W/m2 unknown
07:04 48.2 °F 44.6 °F 29.7 in WSW 5 mph 6.2 mph 92% 0 in 12.00 W/m2 unknown
07:09 48.2 °F 44.6 °F 29.7 in WSW 5 mph 6.2 mph 92% 0 in 19.00 W/m2 unknown
07:14 46.4 °F 44.6 °F 29.7 in WSW 5 mph 6.8 mph 92% 0 in 25.00 W/m2 unknown
07:19 46.4 °F 44.6 °F 29.7 in WSW 5 mph 6.8 mph 92% 0 in 32.00 W/m2 unknown
07:24 46.4 °F 44.6 °F 29.7 in WSW 4.3 mph 6.8 mph 92% 0 in 39.00 W/m2 unknown
07:29 46.4 °F 44.6 °F 29.7 in WSW 5.6 mph 8.1 mph 92% 0 in 40.00 W/m2 unknown
07:34 46.4 °F 44.6 °F 29.7 in WSW 5 mph 8.1 mph 92% 0 in 47.00 W/m2 unknown
07:39 46.4 °F 44.6 °F 29.7 in WSW 4.3 mph 6.2 mph 92% 0 in 54.00 W/m2 unknown
07:44 46.4 °F 44.6 °F 29.7 in WSW 4.3 mph 6.2 mph 92% 0 in 63.00 W/m2 unknown
07:49 46.4 °F 44.6 °F 29.7 in WSW 5 mph 6.2 mph 91% 0 in 74.00 W/m2 unknown
07:54 46.4 °F 44.6 °F 29.7 in WSW 4.3 mph 6.2 mph 91% 0 in 83.00 W/m2 unknown
07:59 46.4 °F 44.6 °F 29.7 in WSW 5 mph 6.8 mph 90% 0 in 93.00 W/m2 unknown
08:04 46.4 °F 44.6 °F 29.7 in WSW 5 mph 6.8 mph 90% 0 in 107.00 W/m2 unknown
08:09 46.4 °F 44.6 °F 29.7 in WSW 5.6 mph 8.1 mph 89% 0 in 130.00 W/m2 unknown
08:14 48.2 °F 44.6 °F 29.7 in West 6.2 mph 8.1 mph 89% 0 in 142.00 W/m2 unknown
08:19 48.2 °F 44.6 °F 29.7 in WSW 5.6 mph 8.1 mph 88% 0 in 142.00 W/m2 unknown
08:24 48.2 °F 44.6 °F 29.7 in WSW 6.2 mph 6.8 mph 87% 0 in 165.00 W/m2 unknown
08:29 48.2 °F 44.6 °F 29.7 in West 5.6 mph 6.8 mph 86% 0 in 181.00 W/m2 unknown
08:34 50 °F 44.6 °F 29.7 in West 8.1 mph 9.3 mph 85% 0 in 197.00 W/m2 unknown
08:39 50 °F 44.6 °F 29.7 in West 6.8 mph 8.7 mph 83% 0 in 216.00 W/m2 unknown
08:44 50 °F 44.6 °F 29.7 in West 6.8 mph 9.3 mph 81% 0 in 234.00 W/m2 unknown
08:49 50 °F 44.6 °F 29.7 in West 6.8 mph 9.3 mph 80% 0 in 246.00 W/m2 unknown
08:54 50 °F 44.6 °F 29.7 in West 6.8 mph 9.3 mph 79% 0 in 267.00 W/m2 unknown
08:59 51.8 °F 44.6 °F 29.7 in West 6.8 mph 9.3 mph 79% 0 in 281.00 W/m2 unknown
09:04 51.8 °F 44.6 °F 29.7 in West 6.2 mph 9.3 mph 78% 0 in 304.00 W/m2 unknown
09:09 51.8 °F 44.6 °F 29.7 in WNW 6.8 mph 10.6 mph 77% 0 in 309.00 W/m2 unknown
09:14 51.8 °F 44.6 °F 29.7 in WNW 9.9 mph 13 mph 75% 0 in 357.00 W/m2 unknown
09:19 53.6 °F 44.6 °F 29.7 in WNW 9.3 mph 13 mph 73% 0 in 380.00 W/m2 unknown
09:24 53.6 °F 44.6 °F 29.7 in WNW 10.6 mph 11.8 mph 72% 0 in 380.00 W/m2 unknown
09:29 53.6 °F 44.6 °F 29.7 in West 9.9 mph 11.8 mph 70% 0 in 443.00 W/m2 unknown
09:34 53.6 °F 44.6 °F 29.7 in WNW 7.5 mph 11.8 mph 69% 0 in 478.00 W/m2 unknown
09:39 53.6 °F 44.6 °F 29.7 in West 9.3 mph 13 mph 68% 0 in 490.00 W/m2 unknown
09:44 55.4 °F 44.6 °F 29.7 in West 8.1 mph 13 mph 68% 0 in 457.00 W/m2 unknown
09:49 55.4 °F 44.6 °F 29.7 in West 8.7 mph 11.8 mph 68% 0 in 380.00 W/m2 unknown
09:54 55.4 °F 44.6 °F 29.7 in West 8.1 mph 11.8 mph 68% 0 in 318.00 W/m2 unknown
09:59 55.4 °F 44.6 °F 29.7 in West 9.3 mph 11.8 mph 68% 0 in 454.00 W/m2 unknown
10:04 55.4 °F 44.6 °F 29.7 in West 9.3 mph 11.8 mph 66% 0 in 468.00 W/m2 unknown
10:09 55.4 °F 44.6 °F 29.7 in West 9.3 mph 14.3 mph 66% 0 in 427.00 W/m2 unknown
10:14 55.4 °F 44.6 °F 29.7 in West 9.3 mph 14.3 mph 66% 0 in 427.00 W/m2 unknown
10:19 55.4 °F 44.6 °F 29.7 in West 8.7 mph 14.3 mph 66% 0 in 265.00 W/m2 unknown
10:24 55.4 °F 44.6 °F 29.7 in West 8.1 mph 11.8 mph 67% 0 in 371.00 W/m2 unknown
10:29 55.4 °F 44.6 °F 29.7 in West 8.7 mph 11.8 mph 66% 0 in 452.00 W/m2 unknown
10:34 55.4 °F 44.6 °F 29.7 in West 6.8 mph 11.8 mph 67% 0 in 476.00 W/m2 unknown
10:44 57.2 °F 46.4 °F 29.7 in West 6.8 mph 9.3 mph 66% 0 in 578.00 W/m2 unknown
10:49 57.2 °F 46.4 °F 29.7 in West 8.7 mph 11.8 mph 66% 0 in 578.00 W/m2 unknown
10:54 57.2 °F 44.6 °F 29.7 in West 9.3 mph 11.8 mph 64% 0 in 575.00 W/m2 unknown
10:59 57.2 °F 44.6 °F 29.7 in WSW 8.1 mph 13 mph 65% 0 in 608.00 W/m2 unknown
11:04 57.2 °F 44.6 °F 29.7 in WSW 8.7 mph 13 mph 64% 0 in 608.00 W/m2 unknown
11:09 57.2 °F 46.4 °F 29.7 in WSW 8.1 mph 13 mph 64% 0 in 587.00 W/m2 unknown
11:14 57.2 °F 46.4 °F 29.7 in West 8.1 mph 11.8 mph 65% 0 in 594.00 W/m2 unknown
11:19 59 °F 46.4 °F 29.7 in WNW 6.2 mph 9.9 mph 65% 0 in 613.00 W/m2 unknown
11:24 59 °F 46.4 °F 29.7 in West 6.8 mph 9.3 mph 63% 0 in 624.00 W/m2 unknown
11:29 59 °F 46.4 °F 29.7 in WSW 8.1 mph 10.6 mph 65% 0 in 649.00 W/m2 unknown
11:34 59 °F 46.4 °F 29.7 in West 7.5 mph 10.6 mph 65% 0 in 657.00 W/m2 unknown
11:39 59 °F 46.4 °F 29.7 in West 7.5 mph 10.6 mph 64% 0 in 664.00 W/m2 unknown
11:44 59 °F 46.4 °F 29.7 in West 7.5 mph 10.6 mph 63% 0 in 675.00 W/m2 unknown
11:49 60.8 °F 48.2 °F 29.7 in WSW 6.8 mph 9.9 mph 64% 0 in 679.00 W/m2 unknown
11:54 60.8 °F 46.4 °F 29.7 in WSW 6.8 mph 9.9 mph 62% 0 in 686.00 W/m2 unknown
11:59 60.8 °F 48.2 °F 29.7 in WSW 9.9 mph 13 mph 63% 0 in 694.00 W/m2 unknown
12:04 59 °F 46.4 °F 29.7 in WSW 8.1 mph 13 mph 62% 0 in 703.00 W/m2 unknown
12:09 60.8 °F 48.2 °F 29.7 in West 6.2 mph 9.3 mph 63% 0 in 714.00 W/m2 unknown
12:14 60.8 °F 48.2 °F 29.7 in West 9.3 mph 14.3 mph 62% 0 in 721.00 W/m2 unknown
12:19 60.8 °F 48.2 °F 29.7 in WNW 9.9 mph 14.3 mph 61% 0 in 726.00 W/m2 unknown
12:24 60.8 °F 48.2 °F 29.7 in West 7.5 mph 14.3 mph 62% 0 in 740.00 W/m2 unknown
12:29 60.8 °F 48.2 °F 29.7 in West 8.7 mph 10.6 mph 62% 0 in 745.00 W/m2 unknown
12:34 60.8 °F 48.2 °F 29.7 in West 8.7 mph 11.8 mph 61% 0 in 747.00 W/m2 unknown
12:39 60.8 °F 48.2 °F 29.7 in WSW 8.1 mph 11.8 mph 61% 0 in 747.00 W/m2 unknown
12:44 62.6 °F 48.2 °F 29.7 in West 6.2 mph 8.7 mph 62% 0 in 747.00 W/m2 unknown
12:49 62.6 °F 48.2 °F 29.7 in West 8.1 mph 10.6 mph 61% 0 in 744.00 W/m2 unknown
12:54 62.6 °F 48.2 °F 29.7 in West 7.5 mph 10.6 mph 61% 0 in 747.00 W/m2 unknown
12:59 62.6 °F 48.2 °F 29.7 in WSW 7.5 mph 10.6 mph 60% 0 in 738.00 W/m2 unknown
13:04 62.6 °F 48.2 °F 29.7 in West 9.3 mph 11.8 mph 60% 0 in 759.00 W/m2 unknown
13:09 62.6 °F 48.2 °F 29.7 in West 8.1 mph 11.8 mph 60% 0 in 756.00 W/m2 unknown
13:14 64.4 °F 50 °F 29.7 in West 6.8 mph 11.8 mph 59% 0 in 791.00 W/m2 unknown
13:19 64.4 °F 48.2 °F 29.7 in West 8.1 mph 11.8 mph 58% 0 in 791.00 W/m2 unknown
13:24 64.4 °F 50 °F 29.7 in West 8.1 mph 13 mph 59% 0 in 779.00 W/m2 unknown
13:29 64.4 °F 50 °F 29.7 in West 8.7 mph 13 mph 58% 0 in 765.00 W/m2 unknown
13:34 64.4 °F 50 °F 29.7 in West 8.7 mph 11.8 mph 58% 0 in 831.00 W/m2 unknown
13:39 64.4 °F 50 °F 29.6 in West 9.3 mph 13 mph 58% 0 in 835.00 W/m2 unknown
13:44 66.2 °F 50 °F 29.6 in West 9.3 mph 13 mph 59% 0 in 904.00 W/m2 unknown
13:49 66.2 °F 50 °F 29.6 in West 9.3 mph 11.8 mph 58% 0 in 882.00 W/m2 unknown
13:54 66.2 °F 50 °F 29.6 in West 9.3 mph 13 mph 58% 0 in 795.00 W/m2 unknown
13:59 66.2 °F 50 °F 29.6 in WSW 11.8 mph 16.2 mph 58% 0 in 795.00 W/m2 unknown
14:04 66.2 °F 50 °F 29.6 in WSW 11.8 mph 16.2 mph 56% 0 in 817.00 W/m2 unknown
14:09 66.2 °F 50 °F 29.6 in West 9.9 mph 14.3 mph 56% 0 in 824.00 W/m2 unknown
14:14 66.2 °F 50 °F 29.6 in West 8.7 mph 11.8 mph 56% 0 in 761.00 W/m2 unknown
14:19 66.2 °F 51.8 °F 29.6 in West 9.3 mph 13 mph 57% 0 in 793.00 W/m2 unknown
14:24 66.2 °F 50 °F 29.6 in WNW 8.1 mph 13 mph 56% 0 in 786.00 W/m2 unknown
14:29 66.2 °F 50 °F 29.6 in West 5.6 mph 11.8 mph 57% 0 in 765.00 W/m2 unknown
14:34 66.2 °F 50 °F 29.6 in West 9.9 mph 13 mph 57% 0 in 719.00 W/m2 unknown
14:39 66.2 °F 50 °F 29.6 in West 8.1 mph 13 mph 57% 0 in 749.00 W/m2 unknown
14:44 68 °F 50 °F 29.6 in SW 8.1 mph 11.8 mph 56% 0 in 733.00 W/m2 unknown
14:49 68 °F 50 °F 29.6 in WSW 8.7 mph 11.8 mph 55% 0 in 765.00 W/m2 unknown
14:54 68 °F 50 °F 29.6 in WSW 9.3 mph 11.8 mph 55% 0 in 742.00 W/m2 unknown
14:59 68 °F 50 °F 29.6 in WSW 9.9 mph 11.8 mph 54% 0 in 728.00 W/m2 unknown
15:04 68 °F 50 °F 29.6 in WSW 8.1 mph 11.8 mph 53% 0 in 729.00 W/m2 unknown
15:09 68 °F 50 °F 29.6 in WSW 8.1 mph 11.8 mph 53% 0 in 712.00 W/m2 unknown
15:14 68 °F 50 °F 29.6 in SW 8.1 mph 11.8 mph 53% 0 in 701.00 W/m2 unknown
15:19 69.8 °F 50 °F 29.6 in WSW 7.5 mph 11.8 mph 52% 0 in 689.00 W/m2 unknown
15:24 69.8 °F 50 °F 29.6 in SW 8.7 mph 11.8 mph 52% 0 in 686.00 W/m2 unknown
15:29 69.8 °F 50 °F 29.6 in WSW 8.7 mph 11.8 mph 52% 0 in 670.00 W/m2 unknown
15:34 68 °F 50 °F 29.6 in WSW 7.5 mph 11.8 mph 53% 0 in 664.00 W/m2 unknown
15:39 68 °F 50 °F 29.6 in WSW 7.5 mph 9.9 mph 52% 0 in 647.00 W/m2 unknown
15:44 69.8 °F 51.8 °F 29.6 in WSW 7.5 mph 11.8 mph 53% 0 in 633.00 W/m2 unknown
15:49 69.8 °F 51.8 °F 29.6 in WSW 8.1 mph 11.8 mph 53% 0 in 622.00 W/m2 unknown
15:54 69.8 °F 51.8 °F 29.6 in WSW 6.8 mph 11.8 mph 52% 0 in 619.00 W/m2 unknown
15:59 69.8 °F 50 °F 29.6 in WSW 7.5 mph 9.9 mph 51% 0 in 598.00 W/m2 unknown
16:04 69.8 °F 50 °F 29.6 in WSW 10.6 mph 13 mph 51% 0 in 587.00 W/m2 unknown
16:09 69.8 °F 51.8 °F 29.6 in WSW 9.3 mph 13 mph 53% 0 in 578.00 W/m2 unknown
16:14 69.8 °F 51.8 °F 29.6 in West 8.7 mph 11.8 mph 53% 0 in 563.00 W/m2 unknown
16:19 69.8 °F 51.8 °F 29.6 in WSW 7.5 mph 10.6 mph 51% 0 in 559.00 W/m2 unknown
16:24 69.8 °F 51.8 °F 29.6 in WSW 6.8 mph 10.6 mph 52% 0 in 548.00 W/m2 unknown
16:29 69.8 °F 51.8 °F 29.6 in WSW 8.7 mph 11.8 mph 50% 0 in 529.00 W/m2 unknown
16:34 69.8 °F 50 °F 29.6 in WSW 8.7 mph 11.8 mph 50% 0 in 515.00 W/m2 unknown
16:39 69.8 °F 51.8 °F 29.6 in SW 8.1 mph 11.8 mph 50% 0 in 503.00 W/m2 unknown
16:44 69.8 °F 51.8 °F 29.6 in SW 9.3 mph 11.8 mph 50% 0 in 501.00 W/m2 unknown
16:49 69.8 °F 51.8 °F 29.6 in SW 9.3 mph 11.8 mph 51% 0 in 427.00 W/m2 unknown
16:54 69.8 °F 51.8 °F 29.6 in WSW 8.1 mph 11.8 mph 52% 0 in 397.00 W/m2 unknown
16:59 69.8 °F 51.8 °F 29.6 in SW 8.1 mph 11.2 mph 51% 0 in 367.00 W/m2 unknown
17:04 69.8 °F 50 °F 29.6 in SW 7.5 mph 11.8 mph 50% 0 in 325.00 W/m2 unknown
17:09 69.8 °F 51.8 °F 29.6 in SW 7.5 mph 11.8 mph 51% 0 in 294.00 W/m2 unknown
17:14 69.8 °F 51.8 °F 29.6 in SW 7.5 mph 11.8 mph 51% 0 in 306.00 W/m2 unknown
17:19 69.8 °F 51.8 °F 29.6 in WSW 7.5 mph 11.8 mph 51% 0 in 315.00 W/m2 unknown
17:24 69.8 °F 50 °F 29.6 in SW 6.8 mph 9.3 mph 49% 0 in 304.00 W/m2 unknown
17:29 69.8 °F 51.8 °F 29.6 in SW 7.5 mph 10.6 mph 51% 0 in 287.00 W/m2 unknown
17:34 69.8 °F 50 °F 29.6 in SW 7.5 mph 10.6 mph 50% 0 in 309.00 W/m2 unknown
17:39 69.8 °F 50 °F 29.6 in WSW 6.2 mph 9.9 mph 50% 0 in 369.00 W/m2 unknown
17:44 69.8 °F 50 °F 29.6 in SW 9.3 mph 11.8 mph 50% 0 in 346.00 W/m2 unknown
17:49 69.8 °F 51.8 °F 29.6 in WSW 7.5 mph 11.8 mph 52% 0 in 311.00 W/m2 unknown
17:54 69.8 °F 51.8 °F 29.6 in WSW 5.6 mph 8.7 mph 52% 0 in 302.00 W/m2 unknown
17:59 69.8 °F 51.8 °F 29.6 in SW 8.7 mph 11.8 mph 50% 0 in 283.00 W/m2 unknown
18:04 69.8 °F 51.8 °F 29.6 in WSW 7.5 mph 11.8 mph 51% 0 in 272.00 W/m2 unknown
18:09 69.8 °F 51.8 °F 29.6 in WSW 7.5 mph 11.8 mph 51% 0 in 267.00 W/m2 unknown
18:14 69.8 °F 50 °F 29.6 in SW 7.5 mph 11.8 mph 50% 0 in 107.00 W/m2 unknown
18:19 69.8 °F 50 °F 29.6 in SW 5 mph 8.1 mph 50% 0 in 195.00 W/m2 unknown
18:24 69.8 °F 50 °F 29.6 in SW 6.8 mph 9.3 mph 50% 0 in 204.00 W/m2 unknown
18:29 69.8 °F 50 °F 29.6 in SW 6.2 mph 9.9 mph 49% 0 in 181.00 W/m2 unknown
18:34 69.8 °F 50 °F 29.6 in SW 5 mph 8.1 mph 49% 0 in 116.00 W/m2 unknown
18:39 69.8 °F 50 °F 29.6 in SSW 6.2 mph 8.1 mph 50% 0 in 102.00 W/m2 unknown
18:44 69.8 °F 50 °F 29.6 in SSW 6.2 mph 8.1 mph 50% 0 in 105.00 W/m2 unknown
18:49 68 °F 50 °F 29.6 in SSW 5 mph 6.8 mph 50% 0 in 97.00 W/m2 unknown
18:54 68 °F 50 °F 29.6 in SSW 8.1 mph 11.8 mph 50% 0 in 81.00 W/m2 unknown
18:59 68 °F 48.2 °F 29.6 in SW 8.1 mph 11.8 mph 48% 0 in 56.00 W/m2 unknown
19:04 68 °F 48.2 °F 29.6 in SW 6.2 mph 11.8 mph 48% 0 in 51.00 W/m2 unknown
19:09 68 °F 48.2 °F 29.5 in SSW 6.2 mph 8.7 mph 49% 0 in 47.00 W/m2 unknown
19:14 68 °F 48.2 °F 29.5 in SSW 6.8 mph 8.1 mph 50% 0 in 40.00 W/m2 unknown
19:19 68 °F 48.2 °F 29.5 in SW 5.6 mph 8.7 mph 52% 0 in 33.00 W/m2 unknown
19:24 66.2 °F 48.2 °F 29.5 in SW 6.2 mph 10.6 mph 52% 0 in 30.00 W/m2 unknown
19:29 66.2 °F 48.2 °F 29.6 in SSW 7.5 mph 11.8 mph 53% 0 in 28.00 W/m2 unknown
19:34 66.2 °F 48.2 °F 29.6 in SSW 8.1 mph 11.8 mph 53% 0 in 25.00 W/m2 unknown
19:39 64.4 °F 48.2 °F 29.6 in SW 8.1 mph 10.6 mph 54% 0 in 18.00 W/m2 unknown
19:44 64.4 °F 48.2 °F 29.6 in SSW 7.5 mph 10.6 mph 54% 0 in 11.00 W/m2 unknown
19:49 64.4 °F 46.4 °F 29.6 in SW 7.5 mph 11.8 mph 54% 0 in 5.00 W/m2 unknown
19:54 64.4 °F 46.4 °F 29.6 in SW 7.5 mph 10.6 mph 54% 0 in 0.00 W/m2 unknown
19:59 64.4 °F 46.4 °F 29.6 in SW 6.8 mph 9.9 mph 55% 0 in 0.00 W/m2 unknown
20:04 62.6 °F 46.4 °F 29.6 in SW 8.1 mph 11.2 mph 55% 0 in 0.00 W/m2 unknown
20:09 62.6 °F 46.4 °F 29.6 in SW 8.1 mph 11.8 mph 56% 0 in 0.00 W/m2 unknown
20:14 62.6 °F 46.4 °F 29.6 in SW 6.8 mph 11.8 mph 56% 0 in 0.00 W/m2 unknown
20:19 62.6 °F 46.4 °F 29.6 in SW 6.8 mph 11.8 mph 57% 0 in 0.00 W/m2 unknown
20:24 62.6 °F 46.4 °F 29.6 in SW 6.2 mph 11.8 mph 57% 0 in 0.00 W/m2 unknown
20:29 60.8 °F 46.4 °F 29.6 in SW 6.2 mph 9.9 mph 58% 0 in 0.00 W/m2 unknown
20:34 60.8 °F 46.4 °F 29.6 in SW 6.2 mph 10.6 mph 59% 0 in 0.00 W/m2 unknown
20:39 60.8 °F 46.4 °F 29.6 in WSW 6.2 mph 9.9 mph 59% 0 in 0.00 W/m2 unknown
20:44 60.8 °F 46.4 °F 29.6 in SW 8.7 mph 11.8 mph 60% 0 in 0.00 W/m2 unknown
20:49 60.8 °F 46.4 °F 29.6 in WSW 8.7 mph 11.8 mph 60% 0 in 0.00 W/m2 unknown
20:54 60.8 °F 46.4 °F 29.6 in WSW 8.1 mph 11.8 mph 61% 0 in 0.00 W/m2 unknown
20:59 59 °F 46.4 °F 29.6 in WSW 6.8 mph 10.6 mph 61% 0 in 0.00 W/m2 unknown
21:04 59 °F 46.4 °F 29.6 in SW 8.7 mph 13 mph 61% 0 in 0.00 W/m2 unknown
21:09 59 °F 46.4 °F 29.6 in WSW 9.9 mph 13 mph 61% 0 in 0.00 W/m2 unknown
21:14 59 °F 46.4 °F 29.6 in WSW 8.1 mph 13 mph 62% 0 in 0.00 W/m2 unknown
21:19 59 °F 46.4 °F 29.6 in SW 10.6 mph 16.2 mph 62% 0 in 0.00 W/m2 unknown
21:24 59 °F 46.4 °F 29.6 in SW 8.7 mph 16.2 mph 63% 0 in 0.00 W/m2 unknown
21:29 59 °F 46.4 °F 29.6 in SW 9.3 mph 14.9 mph 63% 0 in 0.00 W/m2 unknown
21:34 59 °F 46.4 °F 29.6 in WSW 9.3 mph 13 mph 64% 0 in 0.00 W/m2 unknown
21:39 59 °F 46.4 °F 29.6 in SW 8.1 mph 13 mph 64% 0 in 0.00 W/m2 unknown
21:44 59 °F 46.4 °F 29.6 in SW 8.1 mph 10.6 mph 65% 0 in 0.00 W/m2 unknown
21:49 59 °F 46.4 °F 29.6 in WSW 8.1 mph 11.2 mph 66% 0 in 0.00 W/m2 unknown
21:54 59 °F 46.4 °F 29.6 in WSW 8.1 mph 11.8 mph 67% 0 in 0.00 W/m2 unknown
21:59 57.2 °F 46.4 °F 29.6 in SW 8.7 mph 11.8 mph 67% 0 in 0.00 W/m2 unknown
22:04 57.2 °F 46.4 °F 29.6 in SW 8.7 mph 13 mph 67% 0 in 0.00 W/m2 unknown
22:09 57.2 °F 46.4 °F 29.6 in WSW 10.6 mph 13 mph 67% 0 in 0.00 W/m2 unknown
22:14 57.2 °F 46.4 °F 29.6 in WSW 8.7 mph 13 mph 67% 0 in 0.00 W/m2 unknown
22:19 57.2 °F 46.4 °F 29.6 in WSW 11.2 mph 14.9 mph 68% 0 in 0.00 W/m2 unknown
22:24 57.2 °F 48.2 °F 29.6 in WSW 11.2 mph 14.9 mph 68% 0 in 0.00 W/m2 unknown
22:29 57.2 °F 48.2 °F 29.6 in WSW 9.9 mph 14.9 mph 68% 0 in 0.00 W/m2 unknown
22:34 57.2 °F 48.2 °F 29.6 in SW 9.9 mph 14.9 mph 68% 0 in 0.00 W/m2 unknown
22:39 57.2 °F 48.2 °F 29.6 in SW 9.3 mph 14.9 mph 68% 0 in 0.00 W/m2 unknown
22:44 57.2 °F 48.2 °F 29.6 in SW 11.2 mph 14.3 mph 69% 0 in 0.00 W/m2 unknown
22:49 57.2 °F 48.2 °F 29.6 in WSW 11.2 mph 16.2 mph 68% 0 in 0.00 W/m2 unknown
22:54 57.2 °F 48.2 °F 29.6 in WSW 10.6 mph 16.2 mph 69% 0 in 0.00 W/m2 unknown
22:59 57.2 °F 48.2 °F 29.6 in WSW 9.9 mph 14.3 mph 69% 0 in 0.00 W/m2 unknown
23:04 57.2 °F 48.2 °F 29.6 in WSW 9.9 mph 14.3 mph 69% 0 in 0.00 W/m2 unknown
23:09 57.2 °F 48.2 °F 29.6 in WSW 8.7 mph 14.3 mph 70% 0 in 0.00 W/m2 unknown
23:14 57.2 °F 48.2 °F 29.6 in WSW 9.3 mph 13 mph 71% 0 in 0.00 W/m2 unknown
23:19 57.2 °F 48.2 °F 29.6 in WSW 7.5 mph 13 mph 72% 0 in 0.00 W/m2 unknown
23:24 57.2 °F 48.2 °F 29.6 in WSW 6.8 mph 11.8 mph 72% 0 in 0.00 W/m2 unknown
23:29 57.2 °F 48.2 °F 29.6 in WSW 6.2 mph 10.6 mph 73% 0 in 0.00 W/m2 unknown
23:34 55.4 °F 48.2 °F 29.6 in WSW 6.2 mph 9.9 mph 74% 0 in 0.00 W/m2 unknown
23:39 55.4 °F 48.2 °F 29.6 in WSW 6.2 mph 8.1 mph 75% 0 in 0.00 W/m2 unknown
23:44 55.4 °F 48.2 °F 29.6 in WSW 5.6 mph 8.1 mph 75% 0 in 0.00 W/m2 unknown
23:49 55.4 °F 48.2 °F 29.6 in WSW 5.6 mph 6.8 mph 76% 0 in 0.00 W/m2 unknown
23:54 55.4 °F 48.2 °F 29.6 in WSW 5.6 mph 6.8 mph 76% 0 in 0.00 W/m2 unknown
23:59 53.6 °F 46.4 °F 29.6 in WSW 6.2 mph 6.8 mph 77% 0 in 0.00 W/m2 unknown
Stazione Meteorologica MeteoMincio Rivalta s/M (MN)
Con i complimenti di Weather Underground - 4 mb



METEO PILLOLE
Temperatura più bassa in pianura in Italia
S.Pietro Capofiume - Bologna
-29°C il 13 Gennaio 1985.
Share

Non seguire questo link o sarai bannato dal sito!